You are listening to:
KLAX Final App (North/South) - Los Angeles, California, United States

KLAX 300653Z 09003KT 10SM SCT250 13/06 A3013 RMK AO2 SLP201 T01280061

If stream doesn't start automatically press the play button
If stream stops then reload player then press play